createdAt,value
2022-10-03T00:00:04.334Z,536.0400
2022-10-03T00:00:15.406Z,535.1790
2022-10-03T00:00:26.463Z,536.0400
2022-10-03T00:00:37.513Z,533.4670
2022-10-03T00:00:48.574Z,537.7690
2022-10-03T00:00:59.643Z,536.9030
2022-10-03T00:01:10.713Z,539.9460
2022-10-03T00:01:21.838Z,535.6090
2022-10-03T00:01:32.913Z,540.3830
2022-10-03T00:01:44.299Z,538.6370
2022-10-03T00:01:55.662Z,542.1410
2022-10-03T00:02:06.746Z,539.5090
2022-10-03T00:02:17.883Z,541.2610
2022-10-03T00:02:29.060Z,541.2610
2022-10-03T00:02:40.132Z,543.0240
2022-10-03T00:02:51.219Z,540.8220
2022-10-03T00:03:02.330Z,545.2440
2022-10-03T00:03:13.462Z,545.2440
2022-10-03T00:03:24.474Z,541.2610
2022-10-03T00:03:35.539Z,545.6900
2022-10-03T00:03:46.595Z,543.0240
2022-10-03T00:03:57.662Z,543.0240
2022-10-03T00:04:08.726Z,546.5850
2022-10-03T00:04:19.784Z,545.2440
2022-10-03T00:04:30.841Z,547.4820
2022-10-03T00:04:41.921Z,545.2440
2022-10-03T00:04:52.983Z,544.3540
2022-10-03T00:05:04.042Z,547.4820
2022-10-03T00:05:15.104Z,545.6900
2022-10-03T00:05:26.164Z,548.8340
2022-10-03T00:05:37.242Z,549.7390
2022-10-03T00:05:48.303Z,550.6470
2022-10-03T00:05:59.363Z,550.1920
2022-10-03T00:06:10.434Z,547.9320
2022-10-03T00:06:21.507Z,552.4720
2022-10-03T00:06:32.564Z,545.6900
2022-10-03T00:06:43.631Z,550.1920
2022-10-03T00:06:54.674Z,548.3830
2022-10-03T00:07:05.748Z,548.3830
2022-10-03T00:07:16.823Z,552.0140
2022-10-03T00:07:27.923Z,550.1920
2022-10-03T00:07:38.973Z,549.2860
2022-10-03T00:07:50.034Z,554.7700
2022-10-03T00:08:01.092Z,554.7700
2022-10-03T00:08:12.154Z,552.9300
2022-10-03T00:08:23.196Z,553.8480
2022-10-03T00:08:34.235Z,555.6940
2022-10-03T00:08:45.291Z,550.6470
2022-10-03T00:08:56.354Z,556.1580
2022-10-03T00:09:07.413Z,556.6220
2022-10-03T00:09:18.471Z,558.0190
2022-10-03T00:09:29.540Z,552.9300
2022-10-03T00:09:40.602Z,556.6220
2022-10-03T00:09:51.663Z,557.5530
2022-10-03T00:10:02.734Z,555.2320
2022-10-03T00:10:13.794Z,557.0870
2022-10-03T00:10:24.842Z,557.0870
2022-10-03T00:10:35.914Z,556.6220
2022-10-03T00:10:46.991Z,557.5530
2022-10-03T00:10:58.034Z,560.3640
2022-10-03T00:11:09.105Z,560.8350
2022-10-03T00:11:20.163Z,555.2320
2022-10-03T00:11:31.223Z,559.4240
2022-10-03T00:11:42.491Z,559.8940
2022-10-03T00:11:53.720Z,559.8940
2022-10-03T00:12:04.774Z,563.6800
2022-10-03T00:12:15.846Z,559.4240
2022-10-03T00:12:26.905Z,559.8940
2022-10-03T00:12:37.984Z,558.4870
2022-10-03T00:12:49.018Z,561.3070
2022-10-03T00:13:00.101Z,564.1570
2022-10-03T00:13:11.134Z,562.2540
2022-10-03T00:13:22.184Z,562.2540
2022-10-03T00:13:33.253Z,564.6340
2022-10-03T00:13:44.323Z,563.6800
2022-10-03T00:13:55.365Z,559.8940
2022-10-03T00:14:06.429Z,565.1130
2022-10-03T00:14:17.506Z,561.3070
2022-10-03T00:14:28.536Z,560.8350
2022-10-03T00:14:39.594Z,564.1570
2022-10-03T00:14:50.674Z,565.1130
2022-10-03T00:15:01.743Z,565.1130
2022-10-03T00:15:12.794Z,564.6340
2022-10-03T00:15:23.869Z,563.2040
2022-10-03T00:15:34.949Z,560.3640
2022-10-03T00:15:46.064Z,558.4870
2022-10-03T00:15:57.183Z,560.8350
2022-10-03T00:16:08.283Z,566.5530
2022-10-03T00:16:19.405Z,563.2040
2022-10-03T00:16:30.497Z,568.0010
2022-10-03T00:16:41.541Z,565.5920
2022-10-03T00:16:52.599Z,560.3640
2022-10-03T00:17:03.668Z,567.0350
2022-10-03T00:17:14.714Z,565.1130
2022-10-03T00:17:25.782Z,566.0720
2022-10-03T00:17:36.851Z,569.9430
2022-10-03T00:17:47.934Z,562.2540
2022-10-03T00:17:58.993Z,562.2540
2022-10-03T00:18:10.056Z,563.6800
2022-10-03T00:18:21.124Z,566.0720
2022-10-03T00:18:32.193Z,563.2040
2022-10-03T00:18:43.264Z,568.0010
2022-10-03T00:18:54.324Z,569.4560
2022-10-03T00:19:05.384Z,564.1570
2022-10-03T00:19:16.468Z,566.5530
2022-10-03T00:19:27.524Z,570.4300
2022-10-03T00:19:38.584Z,568.4850
2022-10-03T00:19:49.643Z,568.9700
2022-10-03T00:20:00.703Z,569.4560
2022-10-03T00:20:11.753Z,567.0350
2022-10-03T00:20:22.794Z,568.4850
2022-10-03T00:20:33.854Z,566.0720
2022-10-03T00:20:44.953Z,569.9430
2022-10-03T00:20:56.028Z,571.4080
2022-10-03T00:21:07.076Z,568.0010
2022-10-03T00:21:18.155Z,568.9700
2022-10-03T00:21:29.225Z,570.9190
2022-10-03T00:21:40.744Z,572.8810
2022-10-03T00:21:52.424Z,567.0350
2022-10-03T00:22:03.493Z,570.4300
2022-10-03T00:22:14.533Z,567.5180
2022-10-03T00:22:25.599Z,569.4560
2022-10-03T00:22:36.669Z,570.9190
2022-10-03T00:22:47.721Z,568.0010
2022-10-03T00:22:58.813Z,568.9700
2022-10-03T00:23:09.872Z,570.9190
2022-10-03T00:23:20.916Z,573.8670
2022-10-03T00:23:31.973Z,568.9700
2022-10-03T00:23:43.044Z,572.3890
2022-10-03T00:23:54.104Z,574.8560
2022-10-03T00:24:05.166Z,569.9430
2022-10-03T00:24:16.224Z,572.8810
2022-10-03T00:24:27.263Z,574.8560
2022-10-03T00:24:38.304Z,576.3470
2022-10-03T00:24:49.354Z,574.8560
2022-10-03T00:25:00.413Z,571.8980
2022-10-03T00:25:11.490Z,575.8490
2022-10-03T00:25:22.553Z,572.8810
2022-10-03T00:25:33.613Z,571.4080
2022-10-03T00:25:44.685Z,575.8490
2022-10-03T00:25:55.744Z,573.8670
2022-10-03T00:26:06.793Z,575.8490
2022-10-03T00:26:17.854Z,575.8490
2022-10-03T00:26:28.917Z,571.8980
2022-10-03T00:26:39.975Z,575.8490
2022-10-03T00:26:51.025Z,577.8450
2022-10-03T00:27:02.094Z,577.8450
2022-10-03T00:27:13.133Z,573.8670
2022-10-03T00:27:24.195Z,577.8450
2022-10-03T00:27:35.244Z,576.8450
2022-10-03T00:27:46.313Z,576.8450
2022-10-03T00:27:57.372Z,578.8480
2022-10-03T00:28:08.474Z,573.8670
2022-10-03T00:28:19.601Z,578.3460
2022-10-03T00:28:30.685Z,572.8810
2022-10-03T00:28:41.715Z,572.3890
2022-10-03T00:28:52.774Z,575.3520
2022-10-03T00:29:03.846Z,579.8550
2022-10-03T00:29:14.901Z,577.8450
2022-10-03T00:29:25.978Z,580.8650
2022-10-03T00:29:37.024Z,574.8560
2022-10-03T00:29:48.094Z,580.3600
2022-10-03T00:29:59.154Z,575.8490
2022-10-03T00:30:10.203Z,575.8490
2022-10-03T00:30:21.274Z,579.8550
2022-10-03T00:30:32.336Z,576.3470
2022-10-03T00:30:43.414Z,580.8650
2022-10-03T00:30:54.528Z,580.8650
2022-10-03T00:31:05.668Z,578.8480
2022-10-03T00:31:16.847Z,580.8650
2022-10-03T00:31:27.941Z,580.8650
2022-10-03T00:31:39.311Z,580.8650
2022-10-03T00:31:50.901Z,576.8450
2022-10-03T00:32:01.913Z,579.3510
2022-10-03T00:32:12.984Z,575.8490
2022-10-03T00:32:24.064Z,580.8650
2022-10-03T00:32:35.113Z,579.8550
2022-10-03T00:32:46.166Z,576.8450
2022-10-03T00:32:57.225Z,579.8550
2022-10-03T00:33:08.263Z,580.8650
2022-10-03T00:33:19.353Z,577.3450
2022-10-03T00:33:30.422Z,577.8450
2022-10-03T00:33:41.502Z,577.8450
2022-10-03T00:33:52.563Z,577.8450
2022-10-03T00:34:03.641Z,581.3720
2022-10-03T00:34:14.703Z,576.8450
2022-10-03T00:34:25.773Z,580.8650
2022-10-03T00:34:36.842Z,583.4060
2022-10-03T00:34:47.902Z,578.8480
2022-10-03T00:34:58.963Z,583.9170
2022-10-03T00:35:10.024Z,579.3510
2022-10-03T00:35:21.073Z,584.9410
2022-10-03T00:35:32.140Z,580.3600
2022-10-03T00:35:43.194Z,580.8650
2022-10-03T00:35:54.256Z,583.9170
2022-10-03T00:36:05.313Z,580.8650
2022-10-03T00:36:16.383Z,579.8550
2022-10-03T00:36:27.440Z,581.3720
2022-10-03T00:36:38.475Z,585.4550
2022-10-03T00:36:49.551Z,587.0010
2022-10-03T00:37:00.603Z,578.8480
2022-10-03T00:37:11.676Z,582.8960
2022-10-03T00:37:22.745Z,585.4550
2022-10-03T00:37:33.823Z,577.8450
2022-10-03T00:37:44.893Z,579.8550
2022-10-03T00:37:55.965Z,584.9410
2022-10-03T00:38:07.013Z,581.8790
2022-10-03T00:38:18.073Z,581.3720
2022-10-03T00:38:29.144Z,584.9410
2022-10-03T00:38:40.204Z,585.9690
2022-10-03T00:38:51.272Z,580.8650
2022-10-03T00:39:02.321Z,585.9690
2022-10-03T00:39:13.383Z,579.8550
2022-10-03T00:39:24.454Z,585.9690
2022-10-03T00:39:35.499Z,585.9690
2022-10-03T00:39:46.564Z,584.9410
2022-10-03T00:39:57.636Z,584.4290
2022-10-03T00:40:08.713Z,584.9410
2022-10-03T00:40:19.791Z,585.9690
2022-10-03T00:40:30.862Z,585.9690
2022-10-03T00:40:41.923Z,587.5180
2022-10-03T00:40:53.004Z,587.5180
2022-10-03T00:41:04.063Z,585.4550
2022-10-03T00:41:15.134Z,585.9690
2022-10-03T00:41:26.202Z,582.8960
2022-10-03T00:41:37.680Z,586.4850
2022-10-03T00:41:48.893Z,584.9410
2022-10-03T00:41:59.954Z,584.9410
2022-10-03T00:42:11.011Z,585.9690
2022-10-03T00:42:22.073Z,583.9170
2022-10-03T00:42:33.144Z,582.3870
2022-10-03T00:42:44.220Z,583.9170
2022-10-03T00:42:55.273Z,581.8790
2022-10-03T00:43:06.313Z,587.5180
2022-10-03T00:43:17.380Z,585.9690
2022-10-03T00:43:28.464Z,587.0010
2022-10-03T00:43:39.555Z,583.4060
2022-10-03T00:43:50.603Z,584.9410
2022-10-03T00:44:01.664Z,581.8790
2022-10-03T00:44:12.725Z,582.8960
2022-10-03T00:44:23.808Z,584.9410
2022-10-03T00:44:34.887Z,587.0010
2022-10-03T00:44:45.934Z,583.4060
2022-10-03T00:44:57.003Z,587.5180
2022-10-03T00:45:08.064Z,588.0360
2022-10-03T00:45:19.106Z,587.0010
2022-10-03T00:45:30.154Z,583.4060
2022-10-03T00:45:41.194Z,587.0010
2022-10-03T00:45:52.263Z,588.5550
2022-10-03T00:46:03.407Z,585.4550
2022-10-03T00:46:14.463Z,585.9690
2022-10-03T00:46:25.541Z,585.9690
2022-10-03T00:46:36.649Z,584.9410
2022-10-03T00:46:47.787Z,585.9690
2022-10-03T00:46:58.894Z,589.0750
2022-10-03T00:47:10.001Z,583.9170
2022-10-03T00:47:21.063Z,589.5960
2022-10-03T00:47:32.132Z,586.4850
2022-10-03T00:47:43.163Z,589.5960
2022-10-03T00:47:54.223Z,589.0750
2022-10-03T00:48:05.291Z,582.8960
2022-10-03T00:48:16.362Z,589.5960
2022-10-03T00:48:27.424Z,588.0360
2022-10-03T00:48:38.466Z,585.9690
2022-10-03T00:48:49.545Z,587.5180
2022-10-03T00:49:00.614Z,590.1180
2022-10-03T00:49:11.714Z,590.6410
2022-10-03T00:49:22.773Z,589.5960
2022-10-03T00:49:33.824Z,588.0360
2022-10-03T00:49:44.884Z,583.9170
2022-10-03T00:49:55.960Z,590.6410
2022-10-03T00:50:07.070Z,590.1180
2022-10-03T00:50:18.094Z,590.1180
2022-10-03T00:50:29.154Z,590.1180
2022-10-03T00:50:40.214Z,587.5180
2022-10-03T00:50:51.264Z,585.9690
2022-10-03T00:51:02.323Z,588.0360
2022-10-03T00:51:13.373Z,591.1640
2022-10-03T00:51:24.424Z,591.1640
2022-10-03T00:51:35.484Z,588.0360
2022-10-03T00:51:46.554Z,588.5550
2022-10-03T00:51:57.624Z,591.1640
2022-10-03T00:52:08.684Z,585.9690
2022-10-03T00:52:19.743Z,588.0360
2022-10-03T00:52:30.792Z,587.0010
2022-10-03T00:52:41.863Z,590.1180
2022-10-03T00:52:52.924Z,588.5550
2022-10-03T00:53:03.983Z,590.1180
2022-10-03T00:53:15.056Z,587.0010
2022-10-03T00:53:26.113Z,587.0010
2022-10-03T00:53:37.177Z,590.6410
2022-10-03T00:53:48.223Z,593.2680
2022-10-03T00:53:59.324Z,592.7410
2022-10-03T00:54:10.388Z,588.5550
2022-10-03T00:54:21.424Z,588.0360
2022-10-03T00:54:32.484Z,586.4850
2022-10-03T00:54:43.555Z,592.2140
2022-10-03T00:54:54.604Z,591.1640
2022-10-03T00:55:05.654Z,585.9690
2022-10-03T00:55:16.724Z,592.7410
2022-10-03T00:55:27.763Z,592.7410
2022-10-03T00:55:38.823Z,590.1180
2022-10-03T00:55:49.891Z,590.6410
2022-10-03T00:56:00.959Z,589.0750
2022-10-03T00:56:12.013Z,589.0750
2022-10-03T00:56:23.074Z,592.7410
2022-10-03T00:56:34.162Z,594.3250
2022-10-03T00:56:45.223Z,588.0360
2022-10-03T00:56:56.292Z,594.3250
2022-10-03T00:57:07.356Z,588.5550
2022-10-03T00:57:18.413Z,592.2140
2022-10-03T00:57:29.484Z,594.3250
2022-10-03T00:57:40.555Z,594.8560
2022-10-03T00:57:51.624Z,595.3870
2022-10-03T00:58:02.689Z,595.3870
2022-10-03T00:58:13.754Z,588.0360
2022-10-03T00:58:24.824Z,595.3870
2022-10-03T00:58:35.874Z,588.5550
2022-10-03T00:58:46.933Z,593.7960
2022-10-03T00:58:57.991Z,593.2680
2022-10-03T00:59:09.082Z,590.1180
2022-10-03T00:59:20.146Z,594.3250
2022-10-03T00:59:31.213Z,594.3250
2022-10-03T00:59:46.168Z,591.6890
2022-10-03T00:59:59.223Z,581.8790
2022-10-03T01:00:10.284Z,589.0750
2022-10-03T01:00:21.354Z,587.5180
2022-10-03T01:00:32.411Z,588.0360
2022-10-03T01:00:43.551Z,589.0750
2022-10-03T01:00:54.678Z,585.9690
2022-10-03T01:01:05.819Z,590.1180
2022-10-03T01:01:16.968Z,587.0010
2022-10-03T01:01:28.056Z,588.5550
2022-10-03T01:01:39.578Z,591.1640
2022-10-03T01:01:50.879Z,587.0010
2022-10-03T01:02:02.042Z,590.1180
2022-10-03T01:02:13.137Z,588.5550
2022-10-03T01:02:24.240Z,590.6410
2022-10-03T01:02:35.422Z,589.0750
2022-10-03T01:02:46.504Z,587.5180
2022-10-03T01:02:57.572Z,588.0360
2022-10-03T01:03:08.613Z,590.6410
2022-10-03T01:03:19.674Z,589.0750
2022-10-03T01:03:30.713Z,587.5180
2022-10-03T01:03:41.773Z,590.1180
2022-10-03T01:03:52.852Z,590.1180
2022-10-03T01:04:03.910Z,589.0750
2022-10-03T01:04:14.993Z,591.6890
2022-10-03T01:04:26.057Z,589.5960
2022-10-03T01:04:37.124Z,594.3250
2022-10-03T01:04:48.184Z,594.3250
2022-10-03T01:04:59.264Z,591.1640
2022-10-03T01:05:10.313Z,590.1180
2022-10-03T01:05:21.383Z,589.0750
2022-10-03T01:05:32.435Z,594.3250
2022-10-03T01:05:43.503Z,594.3250
2022-10-03T01:05:54.563Z,593.7960
2022-10-03T01:06:05.636Z,592.2140
2022-10-03T01:06:16.704Z,590.1180
2022-10-03T01:06:27.782Z,593.2680
2022-10-03T01:06:38.823Z,595.3870
2022-10-03T01:06:49.883Z,595.3870
2022-10-03T01:07:00.953Z,594.3250
2022-10-03T01:07:12.014Z,589.5960
2022-10-03T01:07:23.093Z,595.3870
2022-10-03T01:07:34.144Z,590.1180
2022-10-03T01:07:45.208Z,592.2140
2022-10-03T01:07:56.274Z,596.4520
2022-10-03T01:08:07.333Z,593.2680
2022-10-03T01:08:18.404Z,595.9190
2022-10-03T01:08:29.454Z,591.1640
2022-10-03T01:08:40.535Z,593.2680
2022-10-03T01:08:51.584Z,596.9860
2022-10-03T01:09:02.635Z,596.4520
2022-10-03T01:09:13.673Z,597.5210
2022-10-03T01:09:24.763Z,591.1640
2022-10-03T01:09:35.823Z,596.4520
2022-10-03T01:09:46.884Z,599.6700
2022-10-03T01:09:57.953Z,590.1180
2022-10-03T01:10:09.032Z,592.7410
2022-10-03T01:10:20.097Z,597.5210
2022-10-03T01:10:31.171Z,593.2680
2022-10-03T01:10:42.234Z,594.8560
2022-10-03T01:10:53.293Z,593.2680
2022-10-03T01:11:04.354Z,596.4520
2022-10-03T01:11:15.424Z,596.9860
2022-10-03T01:11:26.463Z,592.2140
2022-10-03T01:11:37.893Z,594.3250
2022-10-03T01:11:49.344Z,592.2140
2022-10-03T01:12:00.378Z,595.3870
2022-10-03T01:12:11.440Z,595.3870
2022-10-03T01:12:22.474Z,594.8560
2022-10-03T01:12:33.533Z,597.5210
2022-10-03T01:12:44.603Z,595.3870
2022-10-03T01:12:55.673Z,595.9190
2022-10-03T01:13:06.741Z,596.4520
2022-10-03T01:13:17.806Z,590.1180
2022-10-03T01:13:28.844Z,596.4520
2022-10-03T01:13:39.904Z,589.5960
2022-10-03T01:13:50.973Z,592.7410
2022-10-03T01:14:02.032Z,595.3870
2022-10-03T01:14:13.094Z,598.0570
2022-10-03T01:14:24.163Z,594.8560
2022-10-03T01:14:35.274Z,592.2140
2022-10-03T01:14:46.347Z,595.9190
2022-10-03T01:14:57.543Z,595.3870
2022-10-03T01:15:08.624Z,595.3870
2022-10-03T01:15:19.693Z,594.3250
2022-10-03T01:15:30.764Z,599.1310
2022-10-03T01:15:41.911Z,593.2680
2022-10-03T01:15:53.031Z,599.1310
2022-10-03T01:16:04.139Z,595.3870
2022-10-03T01:16:15.328Z,596.4520
2022-10-03T01:16:26.501Z,595.3870
2022-10-03T01:16:37.585Z,597.5210
2022-10-03T01:16:48.634Z,592.7410
2022-10-03T01:16:59.693Z,593.2680
2022-10-03T01:17:10.765Z,594.8560
2022-10-03T01:17:21.833Z,596.4520
2022-10-03T01:17:32.915Z,593.7960
2022-10-03T01:17:43.978Z,595.9190
2022-10-03T01:17:55.093Z,591.6890
2022-10-03T01:18:06.143Z,592.2140
2022-10-03T01:18:17.214Z,599.6700
2022-10-03T01:18:28.280Z,594.3250
2022-10-03T01:18:39.333Z,594.3250
2022-10-03T01:18:50.393Z,590.6410
2022-10-03T01:19:01.454Z,595.9190
2022-10-03T01:19:12.505Z,593.2680
2022-10-03T01:19:23.563Z,596.4520
2022-10-03T01:19:34.630Z,591.1640
2022-10-03T01:19:45.695Z,596.4520
2022-10-03T01:19:56.745Z,597.5210
2022-10-03T01:20:07.804Z,589.0750
2022-10-03T01:20:18.868Z,598.0570
2022-10-03T01:20:29.923Z,596.4520
2022-10-03T01:20:40.985Z,593.2680
2022-10-03T01:20:52.056Z,593.2680
2022-10-03T01:21:03.103Z,591.6890
2022-10-03T01:21:14.164Z,593.2680
2022-10-03T01:21:25.233Z,597.5210
2022-10-03T01:21:36.509Z,600.2100
2022-10-03T01:21:47.634Z,597.5210
2022-10-03T01:21:58.693Z,594.3250
2022-10-03T01:22:09.763Z,595.3870
2022-10-03T01:22:20.833Z,597.5210
2022-10-03T01:22:31.910Z,592.2140
2022-10-03T01:22:42.955Z,595.9190
2022-10-03T01:22:54.013Z,590.1180
2022-10-03T01:23:05.045Z,591.6890
2022-10-03T01:23:16.115Z,595.9190
2022-10-03T01:23:27.203Z,598.5940
2022-10-03T01:23:38.291Z,594.8560
2022-10-03T01:23:49.353Z,595.3870
2022-10-03T01:24:00.403Z,598.5940
2022-10-03T01:24:11.463Z,596.4520
2022-10-03T01:24:22.524Z,595.3870
2022-10-03T01:24:33.584Z,595.9190
2022-10-03T01:24:44.654Z,596.4520
2022-10-03T01:24:55.764Z,593.2680
2022-10-03T01:25:06.834Z,593.2680
2022-10-03T01:25:17.895Z,598.5940
2022-10-03T01:25:28.961Z,600.2100
2022-10-03T01:25:40.015Z,596.4520
2022-10-03T01:25:51.082Z,593.2680
2022-10-03T01:26:02.160Z,593.2680
2022-10-03T01:26:13.184Z,594.8560
2022-10-03T01:26:24.245Z,598.5940
2022-10-03T01:26:35.305Z,597.5210
2022-10-03T01:26:46.375Z,593.2680
2022-10-03T01:26:57.443Z,594.8560
2022-10-03T01:27:08.505Z,596.4520
2022-10-03T01:27:19.575Z,595.3870
2022-10-03T01:27:30.623Z,597.5210
2022-10-03T01:27:41.683Z,599.6700
2022-10-03T01:27:52.825Z,594.8560
2022-10-03T01:28:03.890Z,599.6700
2022-10-03T01:28:14.972Z,594.3250
2022-10-03T01:28:26.141Z,597.5210
2022-10-03T01:28:37.191Z,593.2680
2022-10-03T01:28:48.253Z,597.5210
2022-10-03T01:28:59.323Z,595.9190
2022-10-03T01:29:10.388Z,597.5210
2022-10-03T01:29:21.457Z,594.3250
2022-10-03T01:29:32.524Z,591.1640
2022-10-03T01:29:43.571Z,595.3870
2022-10-03T01:29:54.657Z,597.5210
2022-10-03T01:30:05.710Z,594.8560
2022-10-03T01:30:16.767Z,597.5210
2022-10-03T01:30:27.824Z,598.5940
2022-10-03T01:30:38.891Z,594.3250
2022-10-03T01:30:50.099Z,596.4520
2022-10-03T01:31:01.245Z,600.2100
2022-10-03T01:31:12.438Z,594.3250
2022-10-03T01:31:23.551Z,599.1310
2022-10-03T01:31:34.716Z,599.6700
2022-10-03T01:31:45.813Z,598.5940
2022-10-03T01:31:56.872Z,600.2100
2022-10-03T01:32:07.935Z,596.9860
2022-10-03T01:32:19.007Z,599.6700
2022-10-03T01:32:30.044Z,594.3250
2022-10-03T01:32:41.110Z,594.3250
2022-10-03T01:32:52.152Z,598.5940
2022-10-03T01:33:03.214Z,593.2680
2022-10-03T01:33:14.294Z,594.3250
2022-10-03T01:33:25.367Z,597.5210
2022-10-03T01:33:36.405Z,595.3870
2022-10-03T01:33:47.464Z,599.6700
2022-10-03T01:33:58.523Z,597.5210
2022-10-03T01:34:09.583Z,593.7960
2022-10-03T01:34:20.646Z,593.2680
2022-10-03T01:34:31.707Z,594.3250
2022-10-03T01:34:42.783Z,595.3870
2022-10-03T01:34:53.887Z,596.4520
2022-10-03T01:35:04.913Z,598.0570
2022-10-03T01:35:16.015Z,598.5940
2022-10-03T01:35:27.073Z,595.3870
2022-10-03T01:35:38.144Z,597.5210
2022-10-03T01:35:49.187Z,595.9190
2022-10-03T01:36:00.245Z,594.3250
2022-10-03T01:36:11.303Z,594.3250
2022-10-03T01:36:22.374Z,594.3250
2022-10-03T01:36:33.448Z,596.9860
2022-10-03T01:36:44.505Z,595.9190
2022-10-03T01:36:55.573Z,592.7410
2022-10-03T01:37:06.632Z,596.4520
2022-10-03T01:37:17.683Z,602.3790
2022-10-03T01:37:28.745Z,594.3250
2022-10-03T01:37:39.812Z,595.3870
2022-10-03T01:37:50.854Z,593.7960
2022-10-03T01:38:01.923Z,599.6700
2022-10-03T01:38:12.984Z,598.5940
2022-10-03T01:38:24.045Z,595.3870
2022-10-03T01:38:35.084Z,594.3250
2022-10-03T01:38:46.144Z,599.6700
2022-10-03T01:38:57.225Z,597.5210
2022-10-03T01:39:08.293Z,599.6700
2022-10-03T01:39:19.363Z,597.5210
2022-10-03T01:39:30.442Z,597.5210
2022-10-03T01:39:41.504Z,596.4520
2022-10-03T01:39:52.582Z,596.4520
2022-10-03T01:40:03.633Z,600.7510
2022-10-03T01:40:14.682Z,599.6700
2022-10-03T01:40:25.772Z,599.1310
2022-10-03T01:40:36.834Z,598.0570
2022-10-03T01:40:47.894Z,594.3250
2022-10-03T01:40:58.945Z,597.5210
2022-10-03T01:41:10.015Z,595.3870
2022-10-03T01:41:21.055Z,596.4520
2022-10-03T01:41:32.114Z,599.6700
2022-10-03T01:41:43.156Z,602.3790
2022-10-03T01:41:54.212Z,601.2920
2022-10-03T01:42:05.254Z,600.2100
2022-10-03T01:42:16.313Z,596.4520
2022-10-03T01:42:27.384Z,598.5940
2022-10-03T01:42:38.444Z,599.6700
2022-10-03T01:42:49.515Z,600.7510
2022-10-03T01:43:00.553Z,596.4520
2022-10-03T01:43:11.625Z,599.6700
2022-10-03T01:43:22.685Z,597.5210
2022-10-03T01:43:33.744Z,598.0570
2022-10-03T01:43:44.795Z,594.8560
2022-10-03T01:43:55.853Z,596.4520
2022-10-03T01:44:06.915Z,600.7510
2022-10-03T01:44:17.994Z,601.8350
2022-10-03T01:44:29.053Z,598.5940
2022-10-03T01:44:40.113Z,601.8350
2022-10-03T01:44:51.174Z,600.7510
2022-10-03T01:45:02.307Z,595.9190
2022-10-03T01:45:13.365Z,596.4520
2022-10-03T01:45:24.394Z,599.1310
2022-10-03T01:45:35.465Z,601.2920
2022-10-03T01:45:46.548Z,601.2920
2022-10-03T01:45:57.602Z,599.6700
2022-10-03T01:46:08.733Z,597.5210
2022-10-03T01:46:19.857Z,595.3870
2022-10-03T01:46:30.963Z,596.9860
2022-10-03T01:46:42.034Z,596.4520
2022-10-03T01:46:53.170Z,599.6700
2022-10-03T01:47:04.226Z,600.7510
2022-10-03T01:47:15.277Z,595.3870
2022-10-03T01:47:26.333Z,598.0570
2022-10-03T01:47:37.404Z,603.4690
2022-10-03T01:47:48.464Z,598.5940
2022-10-03T01:47:59.523Z,594.8560
2022-10-03T01:48:10.602Z,597.5210
2022-10-03T01:48:21.664Z,596.4520
2022-10-03T01:48:32.715Z,595.3870
2022-10-03T01:48:43.774Z,595.9190
2022-10-03T01:48:54.834Z,594.8560
2022-10-03T01:49:05.894Z,599.6700
2022-10-03T01:49:16.954Z,596.4520
2022-10-03T01:49:28.034Z,595.9190
2022-10-03T01:49:39.077Z,596.4520
2022-10-03T01:49:50.143Z,594.3250
2022-10-03T01:50:01.213Z,595.9190
2022-10-03T01:50:12.262Z,596.4520
2022-10-03T01:50:23.324Z,601.2920
2022-10-03T01:50:34.391Z,601.2920
2022-10-03T01:50:45.563Z,600.7510
2022-10-03T01:50:56.616Z,594.8560
2022-10-03T01:51:07.674Z,593.7960
2022-10-03T01:51:18.743Z,602.3790
2022-10-03T01:51:29.814Z,596.4520
2022-10-03T01:51:41.374Z,604.0160
2022-10-03T01:51:52.764Z,594.3250
2022-10-03T01:52:03.813Z,595.3870
2022-10-03T01:52:14.863Z,598.0570
2022-10-03T01:52:25.924Z,599.6700
2022-10-03T01:52:37.004Z,599.6700
2022-10-03T01:52:48.063Z,600.2100
2022-10-03T01:52:59.145Z,595.3870
2022-10-03T01:53:10.202Z,594.8560
2022-10-03T01:53:21.273Z,594.3250
2022-10-03T01:53:32.344Z,595.3870
2022-10-03T01:53:43.423Z,595.3870
2022-10-03T01:53:54.545Z,598.5940
2022-10-03T01:54:05.608Z,593.2680
2022-10-03T01:54:16.663Z,595.3870
2022-10-03T01:54:27.733Z,595.9190
2022-10-03T01:54:38.784Z,596.4520
2022-10-03T01:54:49.844Z,595.9190
2022-10-03T01:55:00.906Z,594.8560
2022-10-03T01:55:11.964Z,600.2100
2022-10-03T01:55:23.041Z,593.2680
2022-10-03T01:55:34.102Z,596.4520
2022-10-03T01:55:45.181Z,595.3870
2022-10-03T01:55:56.253Z,597.5210
2022-10-03T01:56:07.324Z,597.5210
2022-10-03T01:56:18.394Z,599.6700
2022-10-03T01:56:29.463Z,598.5940
2022-10-03T01:56:40.534Z,594.3250
2022-10-03T01:56:51.592Z,594.3250
2022-10-03T01:57:02.653Z,595.9190
2022-10-03T01:57:13.721Z,595.9190
2022-10-03T01:57:24.784Z,596.4520
2022-10-03T01:57:35.844Z,600.7510
2022-10-03T01:57:46.915Z,592.2140
2022-10-03T01:57:57.984Z,595.3870
2022-10-03T01:58:09.032Z,600.7510
2022-10-03T01:58:20.093Z,595.9190
2022-10-03T01:58:31.162Z,595.9190
2022-10-03T01:58:42.223Z,593.2680
2022-10-03T01:58:53.284Z,595.9190
2022-10-03T01:59:04.344Z,594.3250
2022-10-03T01:59:15.403Z,598.0570
2022-10-03T01:59:26.472Z,599.1310
2022-10-03T01:59:37.534Z,595.3870
2022-10-03T01:59:48.637Z,594.8560
2022-10-03T01:59:59.705Z,595.9190
2022-10-03T02:00:10.779Z,598.5940
2022-10-03T02:00:21.824Z,599.6700
2022-10-03T02:00:32.927Z,594.8560
2022-10-03T02:00:44.103Z,596.4520
2022-10-03T02:00:55.233Z,597.5210
2022-10-03T02:01:06.415Z,598.5940
2022-10-03T02:01:17.485Z,593.7960
2022-10-03T02:01:28.524Z,599.6700
2022-10-03T02:01:39.838Z,594.3250
2022-10-03T02:01:51.227Z,599.1310
2022-10-03T02:02:02.329Z,594.8560
2022-10-03T02:02:13.448Z,593.7960
2022-10-03T02:02:24.525Z,598.5940
2022-10-03T02:02:35.553Z,593.2680
2022-10-03T02:02:46.596Z,596.4520
2022-10-03T02:02:57.665Z,599.6700
2022-10-03T02:03:08.724Z,598.0570
2022-10-03T02:03:19.794Z,598.5940
2022-10-03T02:03:30.852Z,599.6700
2022-10-03T02:03:41.930Z,599.6700
2022-10-03T02:03:52.985Z,595.3870
2022-10-03T02:04:04.054Z,594.3250
2022-10-03T02:04:15.152Z,595.3870
2022-10-03T02:04:26.214Z,593.2680
2022-10-03T02:04:37.264Z,598.0570
2022-10-03T02:04:48.330Z,593.2680
2022-10-03T02:04:59.383Z,598.5940
2022-10-03T02:05:10.433Z,594.3250
2022-10-03T02:05:21.503Z,592.7410
2022-10-03T02:05:32.575Z,599.6700
2022-10-03T02:05:43.634Z,600.2100
2022-10-03T02:05:54.696Z,594.3250
2022-10-03T02:06:05.785Z,599.6700
2022-10-03T02:06:16.884Z,597.5210
2022-10-03T02:06:27.943Z,598.5940
2022-10-03T02:06:39.005Z,597.5210
2022-10-03T02:06:50.064Z,600.2100
2022-10-03T02:07:01.104Z,599.6700
2022-10-03T02:07:12.182Z,598.0570
2022-10-03T02:07:23.243Z,592.7410
2022-10-03T02:07:34.311Z,590.6410
2022-10-03T02:07:45.353Z,593.2680
2022-10-03T02:07:56.432Z,597.5210
2022-10-03T02:08:07.492Z,594.3250
2022-10-03T02:08:18.595Z,596.4520
2022-10-03T02:08:29.663Z,593.2680
2022-10-03T02:08:40.706Z,594.3250
2022-10-03T02:08:51.781Z,599.6700
2022-10-03T02:09:02.844Z,593.2680
2022-10-03T02:09:13.946Z,597.5210
2022-10-03T02:09:25.022Z,597.5210
2022-10-03T02:09:36.111Z,593.2680
2022-10-03T02:09:47.163Z,595.3870
2022-10-03T02:09:58.230Z,599.1310
2022-10-03T02:10:09.263Z,595.3870